Time;durP1;ratioP1;P1;durP2;ratioP2;P2;SDS_P1;SDS_P2;PMS_P1;PMS_P2;Temp;Humidity;BMP_temperature;BMP_pressure;BME280_temperature;BME280_humidity;BME280_pressure;Samples;Min_cycle;Max_cycle;Signal;HPM_P1;HPM_P2
2021/06/08 00:01:02;;;;;;;;;;;16.30;99.90;;;;;;5134214;27;20376;-74
2021/06/08 00:03:28;;;;;;;;;;;16.30;99.90;;;;;;5134891;27;19903;-74
2021/06/08 00:05:54;;;;;;;;;;;16.30;99.90;;;;;;5134942;27;19914;-76
2021/06/08 00:08:19;;;;;;;;;;;16.10;99.90;;;;;;5134104;27;19938;-76
2021/06/08 00:10:44;;;;;;;;;;;16.20;99.90;;;;;;5134949;27;19953;-74
2021/06/08 00:13:10;;;;;;;;;;;16.20;99.90;;;;;;5134671;27;19907;-75
2021/06/08 00:15:35;;;;;;;;;;;16.20;99.90;;;;;;5133789;27;19922;-75
2021/06/08 00:18:01;;;;;;;;;;;16.10;99.90;;;;;;5135284;27;19903;-74
2021/06/08 00:20:26;;;;;;;;;;;16.20;99.90;;;;;;5134944;27;19930;-74
2021/06/08 00:22:52;;;;;;;;;;;16.10;99.90;;;;;;5134034;27;19955;-74
2021/06/08 00:25:17;;;;;;;;;;;16.10;99.90;;;;;;5134603;27;19932;-75
2021/06/08 00:27:43;;;;;;;;;;;16.10;99.90;;;;;;5133732;27;20274;-75
2021/06/08 00:30:09;;;;;;;;;;;16.00;99.90;;;;;;5134314;27;19956;-75
2021/06/08 00:32:34;;;;;;;;;;;16.00;99.90;;;;;;5133920;27;20262;-74
2021/06/08 00:34:59;;;;;;;;;;;16.00;99.90;;;;;;5133570;27;19908;-75
2021/06/08 00:37:25;;;;;;;;;;;16.00;99.90;;;;;;5134760;27;19903;-75
2021/06/08 00:39:55;;;;;;;;;;;16.00;99.90;;;;;;5134395;27;20403;-75
2021/06/08 00:42:30;;;;;;;;;;;16.00;99.90;;;;;;5133465;27;19931;-75
2021/06/08 00:44:57;;;;;;;;;;;16.00;99.90;;;;;;5137020;27;19908;-75
2021/06/08 00:47:23;;;;;;;;;;;16.00;99.90;;;;;;5134472;27;20017;-75
2021/06/08 00:49:49;;;;;;;;;;;16.00;99.90;;;;;;5133186;27;20398;-76
2021/06/08 00:52:15;;;;;;;;;;;16.00;99.90;;;;;;5134133;27;19903;-75
2021/06/08 00:54:41;;;;;;;;;;;15.90;99.90;;;;;;5135333;27;20040;-76
2021/06/08 00:57:06;;;;;;;;;;;16.00;99.90;;;;;;5134193;27;19968;-75
2021/06/08 00:59:32;;;;;;;;;;;15.90;99.90;;;;;;5141084;28;19903;-75
2021/06/08 01:01:57;;;;;;;;;;;15.90;99.90;;;;;;5135949;28;19998;-74
2021/06/08 01:04:23;;;;;;;;;;;15.90;99.90;;;;;;5133642;28;19904;-73
2021/06/08 01:06:49;;;;;;;;;;;15.90;99.90;;;;;;5134087;28;19911;-74
2021/06/08 01:09:14;;;;;;;;;;;15.90;99.90;;;;;;5134047;28;20373;-74
2021/06/08 01:11:40;;;;;;;;;;;15.90;99.90;;;;;;5134255;27;19907;-74
2021/06/08 01:14:05;;;;;;;;;;;16.00;99.90;;;;;;5138640;27;19910;-75
2021/06/08 01:16:31;;;;;;;;;;;15.90;99.90;;;;;;5138576;27;19971;-75
2021/06/08 01:18:57;;;;;;;;;;;15.90;99.90;;;;;;5137735;27;20037;-75
2021/06/08 01:21:22;;;;;;;;;;;15.90;99.90;;;;;;5138317;27;19904;-75
2021/06/08 01:23:48;;;;;;;;;;;15.90;99.90;;;;;;5138257;27;19907;-74
2021/06/08 01:26:13;;;;;;;;;;;15.90;99.90;;;;;;5137734;27;19910;-74
2021/06/08 01:28:40;;;;;;;;;;;15.90;99.90;;;;;;5137857;27;19916;-75
2021/06/08 01:31:13;;;;;;;;;;;15.90;99.90;;;;;;5137058;27;19912;-75
2021/06/08 01:33:42;;;;;;;;;;;15.80;99.90;;;;;;5137996;27;19903;-75
2021/06/08 01:36:08;;;;;;;;;;;15.80;99.90;;;;;;5138040;27;19903;-74
2021/06/08 01:38:35;;;;;;;;;;;15.80;99.90;;;;;;5137014;27;19909;-75
2021/06/08 01:41:01;;;;;;;;;;;15.80;99.90;;;;;;5137647;27;19948;-74
2021/06/08 01:43:26;;;;;;;;;;;15.70;99.90;;;;;;5137802;27;19911;-75
2021/06/08 01:45:52;;;;;;;;;;;15.80;99.90;;;;;;5137255;27;19904;-75
2021/06/08 01:48:19;;;;;;;;;;;16.10;99.90;;;;;;5137257;27;19980;-75
2021/06/08 01:50:48;;;;;;;;;;;15.70;99.90;;;;;;5137854;27;20036;-74
2021/06/08 01:53:23;;;;;;;;;;;15.70;99.90;;;;;;5136717;27;19904;-75
2021/06/08 01:55:50;;;;;;;;;;;15.60;99.90;;;;;;5137670;27;19967;-75
2021/06/08 01:58:24;;;;;;;;;;;15.60;99.90;;;;;;5137664;27;19910;-75
2021/06/08 02:01:01;;;;;;;;;;;15.50;99.90;;;;;;5136857;27;19935;-74
2021/06/08 02:03:29;;;;;;;;;;;15.60;99.90;;;;;;5137731;27;19911;-75
2021/06/08 02:06:01;;;;;;;;;;;15.50;99.90;;;;;;5137719;27;19904;-74
2021/06/08 02:08:30;;;;;;;;;;;15.50;99.90;;;;;;5136653;27;20289;-74
2021/06/08 02:11:00;;;;;;;;;;;15.50;99.90;;;;;;5137226;27;19908;-74
2021/06/08 02:13:37;;;;;;;;;;;15.40;99.90;;;;;;5136332;27;20343;-75
2021/06/08 02:16:03;;;;;;;;;;;15.40;99.90;;;;;;5137293;27;20194;-74
2021/06/08 02:18:29;;;;;;;;;;;15.40;99.90;;;;;;5137266;27;19904;-73
2021/06/08 02:20:56;;;;;;;;;;;15.40;99.90;;;;;;5136316;27;19903;-74
2021/06/08 02:23:23;;;;;;;;;;;15.30;99.90;;;;;;5135631;27;20066;-75
2021/06/08 02:25:50;;;;;;;;;;;15.30;99.90;;;;;;5137137;27;20255;-74
2021/06/08 02:28:16;;;;;;;;;;;15.30;99.90;;;;;;5136102;27;20275;-74
2021/06/08 02:30:44;;;;;;;;;;;15.20;99.90;;;;;;5137076;27;19995;-74
2021/06/08 02:33:09;;;;;;;;;;;15.20;99.90;;;;;;5136712;27;19979;-74
2021/06/08 02:35:35;;;;;;;;;;;15.20;99.90;;;;;;5136155;27;20361;-74
2021/06/08 02:38:01;;;;;;;;;;;15.20;99.90;;;;;;5136674;27;19952;-75
2021/06/08 02:40:27;;;;;;;;;;;15.10;99.90;;;;;;5136713;27;19947;-75
2021/06/08 02:42:53;;;;;;;;;;;15.10;99.90;;;;;;5136117;27;19910;-75
2021/06/08 02:45:18;;;;;;;;;;;15.10;99.90;;;;;;5136313;27;19970;-75
2021/06/08 02:47:44;;;;;;;;;;;15.10;99.90;;;;;;5136346;27;19904;-74
2021/06/08 02:50:11;;;;;;;;;;;15.10;99.90;;;;;;5136460;27;20363;-75
2021/06/08 02:52:37;;;;;;;;;;;15.10;99.90;;;;;;5144046;27;19915;-75
2021/06/08 02:55:03;;;;;;;;;;;15.00;99.90;;;;;;5136617;27;20340;-74
2021/06/08 02:57:29;;;;;;;;;;;15.10;99.90;;;;;;5135589;27;20377;-76
2021/06/08 03:00:02;;;;;;;;;;;15.00;99.90;;;;;;5136637;27;19904;-75
2021/06/08 03:02:28;;;;;;;;;;;15.00;99.90;;;;;;5137942;27;19903;-75
2021/06/08 03:04:58;;;;;;;;;;;15.00;99.90;;;;;;5137046;27;19910;-75
2021/06/08 03:07:24;;;;;;;;;;;15.00;99.90;;;;;;5142967;27;19903;-75
2021/06/08 03:09:53;;;;;;;;;;;15.00;99.90;;;;;;5137021;27;19912;-74
2021/06/08 03:12:21;;;;;;;;;;;15.00;99.90;;;;;;5135993;27;20247;-75
2021/06/08 03:14:47;;;;;;;;;;;15.00;99.90;;;;;;5135814;27;20324;-75
2021/06/08 03:17:16;;;;;;;;;;;14.90;99.90;;;;;;5135273;27;19903;-75
2021/06/08 03:19:43;;;;;;;;;;;14.90;99.90;;;;;;5136096;27;19925;-75
2021/06/08 03:22:11;;;;;;;;;;;14.90;99.90;;;;;;5136038;27;20320;-75
2021/06/08 03:24:38;;;;;;;;;;;15.00;99.90;;;;;;5135088;27;19915;-75
2021/06/08 03:27:04;;;;;;;;;;;14.90;99.90;;;;;;5136031;27;19903;-75
2021/06/08 03:29:30;;;;;;;;;;;14.90;99.90;;;;;;5135729;27;20279;-75
2021/06/08 03:31:57;;;;;;;;;;;14.90;99.90;;;;;;5135196;27;19903;-75
2021/06/08 03:34:23;;;;;;;;;;;14.90;99.90;;;;;;5135218;27;20293;-74
2021/06/08 03:36:49;;;;;;;;;;;14.90;99.90;;;;;;5135865;27;19991;-74
2021/06/08 03:39:16;;;;;;;;;;;14.90;99.90;;;;;;5135029;27;19910;-74
2021/06/08 03:41:45;;;;;;;;;;;14.90;99.90;;;;;;5136247;27;19907;-74
2021/06/08 03:44:14;;;;;;;;;;;14.90;99.90;;;;;;5136262;27;19959;-75
2021/06/08 03:46:40;;;;;;;;;;;14.90;99.90;;;;;;5134596;27;20354;-74
2021/06/08 03:49:05;;;;;;;;;;;14.90;99.90;;;;;;5135316;27;19922;-74
2021/06/08 03:51:32;;;;;;;;;;;14.90;99.90;;;;;;5135467;27;19918;-74
2021/06/08 03:53:58;;;;;;;;;;;14.90;99.90;;;;;;5134635;27;20415;-75
2021/06/08 03:56:24;;;;;;;;;;;15.00;99.90;;;;;;5135111;27;19904;-74
2021/06/08 03:58:52;;;;;;;;;;;14.90;99.90;;;;;;5134524;27;19903;-75
2021/06/08 04:01:18;;;;;;;;;;;15.00;99.90;;;;;;5135193;27;19910;-74
2021/06/08 04:03:44;;;;;;;;;;;15.00;99.90;;;;;;5135254;27;19903;-74
2021/06/08 04:06:09;;;;;;;;;;;15.00;99.90;;;;;;5134343;27;19919;-75
2021/06/08 04:08:35;;;;;;;;;;;15.00;99.90;;;;;;5134868;27;19911;-74
2021/06/08 04:11:00;;;;;;;;;;;15.10;99.90;;;;;;5134936;27;19975;-74
2021/06/08 04:13:26;;;;;;;;;;;15.10;99.90;;;;;;5134495;27;19907;-75
2021/06/08 04:15:51;;;;;;;;;;;15.00;99.90;;;;;;5134985;27;19908;-74
2021/06/08 04:18:20;;;;;;;;;;;15.10;99.90;;;;;;5134789;27;19910;-74
2021/06/08 04:20:46;;;;;;;;;;;15.10;99.90;;;;;;5133665;27;19904;-74
2021/06/08 04:23:11;;;;;;;;;;;15.20;99.90;;;;;;5134929;27;19907;-76
2021/06/08 04:25:37;;;;;;;;;;;15.20;99.90;;;;;;5134810;27;20263;-75
2021/06/08 04:28:03;;;;;;;;;;;15.20;99.90;;;;;;5133713;27;20407;-76
2021/06/08 04:30:28;;;;;;;;;;;15.30;99.90;;;;;;5134759;27;19912;-76
2021/06/08 04:32:54;;;;;;;;;;;15.30;99.90;;;;;;5134995;27;20050;-76
2021/06/08 04:35:19;;;;;;;;;;;16.00;99.90;;;;;;5133796;27;19904;-75
2021/06/08 04:37:45;;;;;;;;;;;15.30;99.90;;;;;;5134587;27;19903;-74
2021/06/08 04:40:11;;;;;;;;;;;15.40;99.90;;;;;;5134253;27;19903;-76
2021/06/08 04:42:47;;;;;;;;;;;15.40;99.90;;;;;;5133245;27;19914;-75
2021/06/08 04:45:13;;;;;;;;;;;15.50;99.90;;;;;;5134610;27;19903;-75
2021/06/08 04:47:39;;;;;;;;;;;15.40;99.90;;;;;;5133794;27;19910;-75
2021/06/08 04:50:06;;;;;;;;;;;15.50;99.90;;;;;;5133485;27;19915;-76
2021/06/08 04:52:32;;;;;;;;;;;15.50;99.90;;;;;;5134305;27;19907;-74
2021/06/08 04:54:57;;;;;;;;;;;15.50;99.90;;;;;;5133958;27;19904;-75
2021/06/08 04:57:23;;;;;;;;;;;15.60;99.90;;;;;;5134838;27;19904;-74
2021/06/08 05:00:07;;;;;;;;;;;15.70;99.90;;;;;;5137046;27;19910;-74
2021/06/08 05:02:47;;;;;;;;;;;15.70;99.90;;;;;;5133602;28;19903;-75
2021/06/08 05:05:15;;;;;;;;;;;15.70;99.90;;;;;;5134353;28;19904;-75
2021/06/08 05:07:44;;;;;;;;;;;15.80;99.90;;;;;;5134541;28;20275;-75
2021/06/08 05:10:11;;;;;;;;;;;15.80;99.90;;;;;;5135097;28;20275;-74
2021/06/08 05:12:39;;;;;;;;;;;15.90;99.90;;;;;;5136469;28;19915;-75
2021/06/08 05:15:05;;;;;;;;;;;16.00;99.90;;;;;;5138940;28;19904;-74
2021/06/08 05:17:31;;;;;;;;;;;16.00;99.90;;;;;;5133194;28;19994;-75
2021/06/08 05:19:57;;;;;;;;;;;16.10;99.90;;;;;;5134424;28;19903;-75
2021/06/08 05:22:23;;;;;;;;;;;16.10;99.90;;;;;;5134648;28;19910;-75
2021/06/08 05:24:49;;;;;;;;;;;16.20;99.90;;;;;;5133448;28;19903;-74
2021/06/08 05:27:15;;;;;;;;;;;16.30;99.90;;;;;;5134282;28;19945;-75
2021/06/08 05:29:42;;;;;;;;;;;16.30;99.90;;;;;;5134027;28;19965;-76
2021/06/08 05:32:07;;;;;;;;;;;16.40;99.90;;;;;;5133084;28;19903;-75
2021/06/08 05:34:32;;;;;;;;;;;16.40;99.90;;;;;;5133965;28;19926;-77
2021/06/08 05:37:05;;;;;;;;;;;16.40;99.90;;;;;;5134026;28;19955;-75
2021/06/08 05:39:34;;;;;;;;;;;16.50;99.90;;;;;;5133340;28;20282;-76
2021/06/08 05:42:00;;;;;;;;;;;16.50;99.90;;;;;;5134085;28;19903;-75
2021/06/08 05:44:25;;;;;;;;;;;16.60;99.90;;;;;;5132960;28;19991;-75
2021/06/08 05:46:51;;;;;;;;;;;16.60;99.90;;;;;;5133514;28;19903;-75
2021/06/08 05:49:16;;;;;;;;;;;16.70;99.90;;;;;;5133406;28;20347;-75
2021/06/08 05:51:59;;;;;;;;;;;16.70;99.90;;;;;;5098907;28;20294;-76
2021/06/08 05:54:28;;;;;;;;;;;16.80;99.90;;;;;;5133705;28;19907;-75
2021/06/08 05:56:54;;;;;;;;;;;16.80;99.90;;;;;;5133631;27;20330;-75
2021/06/08 05:59:19;;;;;;;;;;;16.90;99.90;;;;;;5136421;27;19965;-75
2021/06/08 06:01:45;;;;;;;;;;;16.90;99.90;;;;;;5138101;27;19903;-74
2021/06/08 06:04:12;;;;;;;;;;;16.50;99.90;;;;;;5137610;27;20002;-76
2021/06/08 06:06:38;;;;;;;;;;;17.00;99.90;;;;;;5136755;27;19903;-75
2021/06/08 06:09:04;;;;;;;;;;;17.10;99.90;;;;;;5137448;27;19911;-75
2021/06/08 06:11:30;;;;;;;;;;;17.10;99.90;;;;;;5137290;27;20297;-75
2021/06/08 06:14:01;;;;;;;;;;;17.20;99.90;;;;;;5136327;27;19998;-75
2021/06/08 06:16:26;;;;;;;;;;;17.20;99.90;;;;;;5137260;27;19914;-75
2021/06/08 06:18:52;;;;;;;;;;;17.20;99.90;;;;;;5137077;27;19907;-75
2021/06/08 06:21:18;;;;;;;;;;;17.30;99.90;;;;;;5136583;27;19907;-76
2021/06/08 06:23:44;;;;;;;;;;;17.30;99.90;;;;;;5137138;27;19908;-75
2021/06/08 06:26:10;;;;;;;;;;;17.40;99.90;;;;;;5137119;27;19960;-75
2021/06/08 06:28:37;;;;;;;;;;;17.40;99.90;;;;;;5136034;27;19943;-75
2021/06/08 06:31:05;;;;;;;;;;;17.50;99.90;;;;;;5136927;27;19918;-74
2021/06/08 06:33:30;;;;;;;;;;;17.60;99.90;;;;;;5136330;27;19903;-75
2021/06/08 06:35:57;;;;;;;;;;;17.60;99.90;;;;;;5136872;27;19930;-75
2021/06/08 06:38:23;;;;;;;;;;;17.60;99.90;;;;;;5136883;27;19903;-75
2021/06/08 06:40:50;;;;;;;;;;;17.70;99.90;;;;;;5135998;27;20404;-75
2021/06/08 06:43:17;;;;;;;;;;;17.80;99.90;;;;;;5136569;27;19918;-75
2021/06/08 06:45:43;;;;;;;;;;;17.80;99.90;;;;;;5136718;27;19951;-75
2021/06/08 06:48:12;;;;;;;;;;;17.90;99.90;;;;;;5135727;27;19903;-75
2021/06/08 06:50:39;;;;;;;;;;;18.00;99.90;;;;;;5136543;27;19929;-75
2021/06/08 06:53:05;;;;;;;;;;;18.00;99.90;;;;;;5136974;27;19903;-75
2021/06/08 06:55:31;;;;;;;;;;;18.10;99.90;;;;;;5135624;27;19910;-74
2021/06/08 06:57:57;;;;;;;;;;;18.00;99.90;;;;;;5136579;27;19903;-75
2021/06/08 07:00:23;;;;;;;;;;;18.10;99.90;;;;;;5136329;27;19903;-75
2021/06/08 07:02:50;;;;;;;;;;;18.20;99.90;;;;;;5135840;27;19910;-75
2021/06/08 07:05:17;;;;;;;;;;;18.30;99.90;;;;;;5140360;27;20355;-76
2021/06/08 07:07:44;;;;;;;;;;;18.40;99.90;;;;;;5138246;27;19903;-75
2021/06/08 07:10:10;;;;;;;;;;;18.40;99.90;;;;;;5134496;27;19911;-75
2021/06/08 07:12:38;;;;;;;;;;;18.50;99.90;;;;;;5136522;27;19904;-75
2021/06/08 07:15:04;;;;;;;;;;;18.50;99.90;;;;;;5136724;27;19903;-74
2021/06/08 07:17:29;;;;;;;;;;;18.60;99.90;;;;;;5135999;27;19910;-75
2021/06/08 07:19:56;;;;;;;;;;;18.60;99.90;;;;;;5137573;27;20389;-75
2021/06/08 07:22:23;;;;;;;;;;;18.60;99.90;;;;;;5138045;27;20325;-76
2021/06/08 07:24:49;;;;;;;;;;;18.70;99.90;;;;;;5135579;27;19903;-76
2021/06/08 07:27:14;;;;;;;;;;;18.80;99.90;;;;;;5135969;27;19955;-75
2021/06/08 07:29:41;;;;;;;;;;;18.80;99.90;;;;;;5135094;27;20284;-75
2021/06/08 07:32:11;;;;;;;;;;;18.90;99.90;;;;;;5135904;27;19908;-75
2021/06/08 07:34:41;;;;;;;;;;;18.90;99.90;;;;;;5135680;27;20427;-76
2021/06/08 07:37:12;;;;;;;;;;;19.00;99.90;;;;;;5134845;27;19907;-76
2021/06/08 07:39:41;;;;;;;;;;;19.10;99.90;;;;;;5135410;27;20018;-76
2021/06/08 07:42:19;;;;;;;;;;;19.10;99.90;;;;;;5135586;27;19951;-76
2021/06/08 07:44:45;;;;;;;;;;;19.20;99.90;;;;;;5134597;27;20385;-76
2021/06/08 07:47:13;;;;;;;;;;;19.20;99.90;;;;;;5135552;27;19911;-74
2021/06/08 07:49:38;;;;;;;;;;;19.20;99.90;;;;;;5134925;27;20263;-74
2021/06/08 07:52:05;;;;;;;;;;;19.30;99.90;;;;;;5135130;27;19911;-74
2021/06/08 07:54:32;;;;;;;;;;;19.30;99.90;;;;;;5135270;27;19909;-74
2021/06/08 07:56:58;;;;;;;;;;;19.40;99.90;;;;;;5135286;27;19903;-75
2021/06/08 07:59:24;;;;;;;;;;;19.40;99.90;;;;;;5134381;27;20319;-75
2021/06/08 08:01:49;;;;;;;;;;;19.50;99.90;;;;;;5135256;27;19948;-76
2021/06/08 08:04:19;;;;;;;;;;;19.50;99.90;;;;;;5134928;27;19913;-75
2021/06/08 08:06:49;;;;;;;;;;;19.50;99.90;;;;;;5134427;27;20317;-75
2021/06/08 08:09:15;;;;;;;;;;;19.60;99.90;;;;;;5135031;27;19915;-75
2021/06/08 08:11:43;;;;;;;;;;;19.60;99.90;;;;;;5135020;27;19907;-74
2021/06/08 08:14:09;;;;;;;;;;;19.70;99.90;;;;;;5134274;27;19990;-75
2021/06/08 08:16:34;;;;;;;;;;;19.70;99.90;;;;;;5134972;27;20393;-74
2021/06/08 08:19:09;;;;;;;;;;;19.80;99.90;;;;;;5134020;27;19903;-74
2021/06/08 08:21:35;;;;;;;;;;;19.90;99.90;;;;;;5134896;27;19960;-74
2021/06/08 08:24:00;;;;;;;;;;;20.00;99.90;;;;;;5134543;27;19904;-75
2021/06/08 08:26:26;;;;;;;;;;;20.00;99.90;;;;;;5134062;27;19918;-75
2021/06/08 08:28:58;;;;;;;;;;;20.10;99.60;;;;;;5134706;27;19911;-74
2021/06/08 08:31:27;;;;;;;;;;;20.10;99.50;;;;;;5134602;27;20347;-74
2021/06/08 08:33:52;;;;;;;;;;;20.20;99.50;;;;;;5134023;27;19903;-74
2021/06/08 08:36:18;;;;;;;;;;;20.30;99.80;;;;;;5134568;27;20331;-74
2021/06/08 08:38:43;;;;;;;;;;;20.50;99.90;;;;;;5134526;27;20252;-75
2021/06/08 08:41:10;;;;;;;;;;;20.50;98.90;;;;;;5134147;27;19903;-75
2021/06/08 08:43:35;;;;;;;;;;;20.50;97.30;;;;;;5134487;27;19927;-75
2021/06/08 08:46:02;;;;;;;;;;;20.50;96.70;;;;;;5134697;27;19910;-75
2021/06/08 08:48:28;;;;;;;;;;;20.60;96.70;;;;;;5133501;27;19964;-75
2021/06/08 08:50:54;;;;;;;;;;;20.70;96.40;;;;;;5134498;27;19920;-77
2021/06/08 08:53:22;;;;;;;;;;;20.80;96.00;;;;;;5134322;27;19904;-75
2021/06/08 08:55:47;;;;;;;;;;;20.90;95.70;;;;;;5133673;27;19908;-74
2021/06/08 08:58:14;;;;;;;;;;;21.00;94.40;;;;;;5134263;27;19910;-75
2021/06/08 09:00:39;;;;;;;;;;;21.00;93.60;;;;;;5134240;27;20306;-76
2021/06/08 09:03:05;;;;;;;;;;;21.00;92.80;;;;;;5133614;28;19903;-75
2021/06/08 09:05:38;;;;;;;;;;;21.10;91.80;;;;;;5134462;28;19903;-75
2021/06/08 09:08:05;;;;;;;;;;;21.10;90.80;;;;;;5134168;28;19994;-75
2021/06/08 09:10:31;;;;;;;;;;;21.20;86.50;;;;;;5133618;28;19941;-75
2021/06/08 09:12:58;;;;;;;;;;;21.30;85.60;;;;;;5135591;28;19991;-75
2021/06/08 09:15:23;;;;;;;;;;;21.40;85.40;;;;;;5133629;28;19931;-76
2021/06/08 09:17:52;;;;;;;;;;;21.50;83.40;;;;;;5133950;28;19977;-74
2021/06/08 09:20:17;;;;;;;;;;;21.60;81.90;;;;;;5134252;28;19904;-75
2021/06/08 09:22:48;;;;;;;;;;;21.60;81.50;;;;;;5134483;28;19903;-74
2021/06/08 09:25:37;;;;;;;;;;;21.70;81.80;;;;;;5134449;28;19990;-76
2021/06/08 09:28:12;;;;;;;;;;;21.80;79.40;;;;;;5135455;28;19926;-75
2021/06/08 09:30:37;;;;;;;;;;;21.90;79.80;;;;;;5133381;28;19941;-73
2021/06/08 09:33:10;;;;;;;;;;;22.00;80.80;;;;;;5135409;27;19937;-74
2021/06/08 09:35:36;;;;;;;;;;;22.00;80.10;;;;;;5119882;27;19926;-75
2021/06/08 09:38:01;;;;;;;;;;;22.10;79.50;;;;;;5137051;27;20350;-74
2021/06/08 09:40:28;;;;;;;;;;;22.20;78.60;;;;;;5137664;27;19922;-74
2021/06/08 09:43:04;;;;;;;;;;;22.30;77.10;;;;;;5137973;27;20002;-75
2021/06/08 09:45:39;;;;;;;;;;;22.30;76.60;;;;;;5137371;27;20291;-75
2021/06/08 09:48:04;;;;;;;;;;;22.20;75.80;;;;;;5137960;27;19986;-74
2021/06/08 09:50:31;;;;;;;;;;;22.30;76.50;;;;;;5136924;27;20010;-75
2021/06/08 09:53:15;;;;;;;;;;;22.30;75.90;;;;;;5137766;27;19927;-76
2021/06/08 09:55:47;;;;;;;;;;;22.30;74.50;;;;;;5137505;27;19904;-76
2021/06/08 09:58:13;;;;;;;;;;;22.40;73.80;;;;;;5137128;27;19903;-75
2021/06/08 10:00:38;;;;;;;;;;;22.50;73.70;;;;;;5137504;27;19904;-75
2021/06/08 10:03:04;;;;;;;;;;;22.60;73.40;;;;;;5137403;27;19904;-75
2021/06/08 10:05:30;;;;;;;;;;;22.70;72.10;;;;;;5136547;27;19904;-75
2021/06/08 10:07:59;;;;;;;;;;;22.80;72.40;;;;;;5137517;27;20242;-75
2021/06/08 10:10:40;;;;;;;;;;;22.80;71.60;;;;;;5137336;27;19918;-75
2021/06/08 10:13:14;;;;;;;;;;;22.90;71.20;;;;;;5136429;27;19910;-75
2021/06/08 10:15:49;;;;;;;;;;;22.90;71.50;;;;;;5137050;27;19907;-75
2021/06/08 10:18:15;;;;;;;;;;;23.00;70.20;;;;;;5137258;27;19903;-74
2021/06/08 10:20:45;;;;;;;;;;;23.00;71.20;;;;;;5136421;27;19956;-74
2021/06/08 10:23:17;;;;;;;;;;;23.10;71.00;;;;;;5136994;27;19964;-74
2021/06/08 10:25:43;;;;;;;;;;;23.20;71.20;;;;;;5136575;27;20304;-74
2021/06/08 10:28:10;;;;;;;;;;;23.20;69.80;;;;;;5137024;27;20005;-74
2021/06/08 10:30:36;;;;;;;;;;;23.30;69.00;;;;;;5137154;27;19937;-74
2021/06/08 10:33:02;;;;;;;;;;;23.30;69.60;;;;;;5136392;27;19904;-74
2021/06/08 10:35:27;;;;;;;;;;;23.40;71.00;;;;;;5136966;27;19933;-74
2021/06/08 10:37:54;;;;;;;;;;;23.50;71.50;;;;;;5137108;27;19929;-74
2021/06/08 10:40:19;;;;;;;;;;;23.50;71.70;;;;;;5136212;27;20369;-74
2021/06/08 10:42:45;;;;;;;;;;;23.60;71.70;;;;;;5137066;27;19903;-75
2021/06/08 10:45:11;;;;;;;;;;;23.60;72.20;;;;;;5135599;27;20036;-75
2021/06/08 10:47:52;;;;;;;;;;;23.60;71.60;;;;;;5136281;27;19914;-75
2021/06/08 10:50:32;;;;;;;;;;;23.70;72.20;;;;;;5136544;27;19915;-75
2021/06/08 10:52:58;;;;;;;;;;;23.70;71.20;;;;;;5137119;27;19903;-75
2021/06/08 10:55:44;;;;;;;;;;;23.90;70.30;;;;;;5136062;27;19903;-76
2021/06/08 10:58:09;;;;;;;;;;;23.90;70.50;;;;;;5135736;27;19910;-75
2021/06/08 11:00:36;;;;;;;;;;;23.90;70.60;;;;;;5136226;27;19903;-75
2021/06/08 11:03:02;;;;;;;;;;;24.00;70.80;;;;;;5135969;27;20009;-75
2021/06/08 11:05:46;;;;;;;;;;;24.00;70.70;;;;;;5136396;27;19903;-76
2021/06/08 11:08:12;;;;;;;;;;;24.00;69.50;;;;;;5135639;27;19986;-76
2021/06/08 11:10:41;;;;;;;;;;;23.90;66.90;;;;;;5136352;27;20006;-76
2021/06/08 11:13:07;;;;;;;;;;;23.90;67.60;;;;;;5136152;27;19998;-76
2021/06/08 11:15:33;;;;;;;;;;;24.00;68.80;;;;;;5135382;27;19938;-76
2021/06/08 11:17:58;;;;;;;;;;;24.00;67.50;;;;;;5136572;27;19942;-76
2021/06/08 11:20:26;;;;;;;;;;;24.00;68.00;;;;;;5136211;27;20244;-75
2021/06/08 11:22:55;;;;;;;;;;;24.10;67.10;;;;;;5135460;27;19939;-76
2021/06/08 11:25:29;;;;;;;;;;;24.20;66.70;;;;;;5136012;27;19910;-76
2021/06/08 11:28:04;;;;;;;;;;;24.30;65.60;;;;;;5136124;27;20019;-76
2021/06/08 11:30:33;;;;;;;;;;;24.20;65.40;;;;;;5136769;27;19912;-76
2021/06/08 11:33:00;;;;;;;;;;;24.30;66.80;;;;;;5136545;27;19907;-76
2021/06/08 11:35:33;;;;;;;;;;;24.30;66.40;;;;;;5140138;27;19907;-75
2021/06/08 11:38:01;;;;;;;;;;;24.40;65.00;;;;;;5135572;27;20266;-76
2021/06/08 11:40:39;;;;;;;;;;;24.80;65.60;;;;;;5135911;27;19915;-76
2021/06/08 11:43:27;;;;;;;;;;;24.40;65.10;;;;;;5134721;27;19903;-75
2021/06/08 11:46:04;;;;;;;;;;;24.50;64.00;;;;;;5135180;27;20366;-74
2021/06/08 11:48:36;;;;;;;;;;;24.50;63.50;;;;;;5135200;27;19930;-76
2021/06/08 11:51:02;;;;;;;;;;;24.60;62.40;;;;;;5134509;27;20359;-74
2021/06/08 11:53:28;;;;;;;;;;;24.60;61.50;;;;;;5135026;27;20395;-74
2021/06/08 11:56:07;;;;;;;;;;;24.70;62.90;;;;;;5134935;27;19903;-75
2021/06/08 11:58:32;;;;;;;;;;;24.70;62.60;;;;;;5134647;27;19903;-74
2021/06/08 12:00:58;;;;;;;;;;;24.80;62.20;;;;;;5135208;27;19903;-75
2021/06/08 12:03:25;;;;;;;;;;;24.80;61.00;;;;;;5135096;27;19910;-75
2021/06/08 12:05:50;;;;;;;;;;;24.80;61.20;;;;;;5134420;27;20019;-74
2021/06/08 12:08:22;;;;;;;;;;;25.00;62.20;;;;;;5135269;27;19903;-75
2021/06/08 12:10:49;;;;;;;;;;;25.20;62.00;;;;;;5134997;27;19999;-74
2021/06/08 12:13:16;;;;;;;;;;;25.30;61.60;;;;;;5134549;27;19930;-74
2021/06/08 12:15:44;;;;;;;;;;;25.40;59.70;;;;;;5134891;27;19904;-73
2021/06/08 12:18:19;;;;;;;;;;;25.40;59.80;;;;;;5134138;27;19903;-74
2021/06/08 12:20:45;;;;;;;;;;;25.40;60.30;;;;;;5116403;27;19956;-74
2021/06/08 12:23:23;;;;;;;;;;;25.60;59.70;;;;;;5134719;27;20341;-74
2021/06/08 12:25:48;;;;;;;;;;;25.70;60.30;;;;;;5134241;27;19903;-76
2021/06/08 12:28:14;;;;;;;;;;;25.90;59.70;;;;;;5134657;27;19904;-74
2021/06/08 12:30:41;;;;;;;;;;;26.00;59.10;;;;;;5134839;27;19954;-75
2021/06/08 12:33:07;;;;;;;;;;;26.20;59.70;;;;;;5133848;27;19914;-75
2021/06/08 12:35:34;;;;;;;;;;;26.40;58.50;;;;;;5134729;27;19956;-75
2021/06/08 12:38:10;;;;;;;;;;;26.40;56.70;;;;;;5134933;27;19910;-75
2021/06/08 12:40:36;;;;;;;;;;;26.40;57.50;;;;;;5133692;27;20061;-76
2021/06/08 12:43:02;;;;;;;;;;;26.60;58.60;;;;;;5134752;27;20007;-76
2021/06/08 12:45:28;;;;;;;;;;;26.70;57.80;;;;;;5134547;27;19917;-76
2021/06/08 12:47:53;;;;;;;;;;;26.70;57.20;;;;;;5134025;27;19907;-75
2021/06/08 12:50:27;;;;;;;;;;;26.80;57.20;;;;;;5134201;27;19968;-76
2021/06/08 12:52:58;;;;;;;;;;;26.80;56.30;;;;;;5134499;27;19910;-74
2021/06/08 12:55:26;;;;;;;;;;;27.00;56.50;;;;;;5133488;27;20351;-75
2021/06/08 12:57:54;;;;;;;;;;;27.10;56.50;;;;;;5134057;27;20255;-75
2021/06/08 13:00:20;;;;;;;;;;;27.20;56.60;;;;;;5133349;27;19904;-74
2021/06/08 13:02:47;;;;;;;;;;;27.40;55.50;;;;;;5134162;27;19910;-76
2021/06/08 13:05:13;;;;;;;;;;;27.50;55.30;;;;;;5134118;28;20359;-75
2021/06/08 13:07:42;;;;;;;;;;;27.50;55.00;;;;;;5132174;27;19990;-75
2021/06/08 13:10:09;;;;;;;;;;;27.60;54.80;;;;;;5133689;28;19964;-75
2021/06/08 13:12:42;;;;;;;;;;;27.60;54.90;;;;;;5133526;28;19903;-74
2021/06/08 13:15:09;;;;;;;;;;;27.70;54.80;;;;;;5133096;28;19983;-74
2021/06/08 13:17:35;;;;;;;;;;;27.70;54.50;;;;;;5133912;28;19903;-75
2021/06/08 13:20:00;;;;;;;;;;;27.80;54.30;;;;;;5133825;28;20361;-73
2021/06/08 13:22:27;;;;;;;;;;;27.90;53.80;;;;;;5132983;28;19968;-75
2021/06/08 13:24:54;;;;;;;;;;;28.00;54.10;;;;;;5133741;28;19903;-74
2021/06/08 13:27:22;;;;;;;;;;;28.10;53.40;;;;;;5133911;28;20366;-74
2021/06/08 13:29:48;;;;;;;;;;;28.30;52.60;;;;;;5132804;28;19915;-76
2021/06/08 13:32:20;;;;;;;;;;;28.50;53.50;;;;;;5133382;28;19911;-74
2021/06/08 13:35:04;;;;;;;;;;;28.70;52.80;;;;;;5133274;28;19903;-75
2021/06/08 13:37:30;;;;;;;;;;;28.90;52.20;;;;;;5133155;28;19907;-74
2021/06/08 13:39:55;;;;;;;;;;;29.00;53.30;;;;;;5133576;28;20252;-74
2021/06/08 13:42:21;;;;;;;;;;;29.30;52.30;;;;;;5133582;28;19991;-75
2021/06/08 13:44:56;;;;;;;;;;;29.40;50.90;;;;;;5132815;28;19907;-75
2021/06/08 13:47:28;;;;;;;;;;;29.40;51.00;;;;;;5133433;28;19903;-74
2021/06/08 13:49:54;;;;;;;;;;;29.50;50.90;;;;;;5132398;28;19915;-75
2021/06/08 13:52:19;;;;;;;;;;;29.60;50.60;;;;;;5133160;28;19904;-74
2021/06/08 13:54:45;;;;;;;;;;;29.60;50.80;;;;;;5133618;28;20048;-74
2021/06/08 13:57:19;;;;;;;;;;;29.60;50.60;;;;;;5132516;28;19907;-74
2021/06/08 14:02:46;;;;;;;;;;;29.60;50.60;;;;;;5133220;28;19910;-75
2021/06/08 14:05:22;;;;;;;;;;;29.70;50.10;;;;;;5132023;28;20469;-77
2021/06/08 14:07:48;;;;;;;;;;;29.90;49.80;;;;;;5133300;28;19938;-75
2021/06/08 14:10:13;;;;;;;;;;;30.00;49.40;;;;;;5133197;28;19954;-75
2021/06/08 14:12:58;;;;;;;;;;;30.10;49.30;;;;;;5132473;28;19914;-75
2021/06/08 14:15:23;;;;;;;;;;;30.20;48.60;;;;;;5132933;28;19903;-75
2021/06/08 14:17:49;;;;;;;;;;;30.10;48.30;;;;;;5132401;28;19971;-75
2021/06/08 14:20:15;;;;;;;;;;;30.20;48.70;;;;;;5136423;27;19957;-75
2021/06/08 14:22:40;;;;;;;;;;;30.10;48.70;;;;;;5136827;27;19903;-74